sensor_id;sensor_type;location;lat;lon;timestamp;P1;durP1;ratioP1;P2;durP2;ratioP2
70558;SDS011;58108;48.094;11.838;2022-09-01T00:01:52;29.88;;;14.73;;
70558;SDS011;58108;48.094;11.838;2022-09-01T00:04:19;29.77;;;14.63;;
70558;SDS011;58108;48.094;11.838;2022-09-01T00:06:47;27.30;;;13.48;;
70558;SDS011;58108;48.094;11.838;2022-09-01T00:09:14;27.83;;;13.20;;
70558;SDS011;58108;48.094;11.838;2022-09-01T00:11:42;24.10;;;13.18;;
70558;SDS011;58108;48.094;11.838;2022-09-01T00:14:09;30.17;;;14.53;;
70558;SDS011;58108;48.094;11.838;2022-09-01T00:16:35;29.30;;;14.30;;
70558;SDS011;58108;48.094;11.838;2022-09-01T00:19:01;26.38;;;13.90;;
70558;SDS011;58108;48.094;11.838;2022-09-01T00:21:29;26.80;;;13.90;;
70558;SDS011;58108;48.094;11.838;2022-09-01T00:23:56;28.50;;;14.02;;
70558;SDS011;58108;48.094;11.838;2022-09-01T00:26:23;27.80;;;13.87;;
70558;SDS011;58108;48.094;11.838;2022-09-01T00:28:48;28.17;;;14.32;;
70558;SDS011;58108;48.094;11.838;2022-09-01T00:31:15;29.07;;;13.77;;
70558;SDS011;58108;48.094;11.838;2022-09-01T00:33:42;30.10;;;14.65;;
70558;SDS011;58108;48.094;11.838;2022-09-01T00:36:08;29.00;;;14.03;;
70558;SDS011;58108;48.094;11.838;2022-09-01T00:38:33;25.73;;;13.32;;
70558;SDS011;58108;48.094;11.838;2022-09-01T00:40:59;26.47;;;13.40;;
70558;SDS011;58108;48.094;11.838;2022-09-01T00:46:00;22.50;;;11.80;;
70558;SDS011;58108;48.094;11.838;2022-09-01T00:48:27;23.40;;;12.60;;
70558;SDS011;58108;48.094;11.838;2022-09-01T00:50:52;25.47;;;12.67;;
70558;SDS011;58108;48.094;11.838;2022-09-01T00:53:18;23.13;;;12.10;;
70558;SDS011;58108;48.094;11.838;2022-09-01T00:55:44;21.65;;;11.50;;
70558;SDS011;58108;48.094;11.838;2022-09-01T00:58:09;21.67;;;11.73;;
70558;SDS011;58108;48.094;11.838;2022-09-01T01:00:35;23.17;;;12.20;;
70558;SDS011;58108;48.094;11.838;2022-09-01T01:03:05;21.40;;;11.77;;
70558;SDS011;58108;48.094;11.838;2022-09-01T01:05:35;21.50;;;11.45;;
70558;SDS011;58108;48.094;11.838;2022-09-01T01:08:23;24.40;;;12.23;;
70558;SDS011;58108;48.094;11.838;2022-09-01T01:11:00;27.27;;;13.03;;
70558;SDS011;58108;48.094;11.838;2022-09-01T01:13:47;27.65;;;13.20;;
70558;SDS011;58108;48.094;11.838;2022-09-01T01:16:16;25.15;;;12.70;;
70558;SDS011;58108;48.094;11.838;2022-09-01T01:18:42;25.73;;;13.27;;
70558;SDS011;58108;48.094;11.838;2022-09-01T01:21:10;26.23;;;13.53;;
70558;SDS011;58108;48.094;11.838;2022-09-01T01:24:21;27.60;;;13.60;;
70558;SDS011;58108;48.094;11.838;2022-09-01T01:26:48;26.10;;;12.75;;
70558;SDS011;58108;48.094;11.838;2022-09-01T01:29:14;23.20;;;12.27;;
70558;SDS011;58108;48.094;11.838;2022-09-01T01:31:39;25.52;;;12.65;;
70558;SDS011;58108;48.094;11.838;2022-09-01T01:34:05;23.20;;;11.93;;
70558;SDS011;58108;48.094;11.838;2022-09-01T01:36:32;22.23;;;12.03;;
70558;SDS011;58108;48.094;11.838;2022-09-01T01:39:02;21.42;;;11.73;;
70558;SDS011;58108;48.094;11.838;2022-09-01T01:41:33;21.33;;;11.45;;
70558;SDS011;58108;48.094;11.838;2022-09-01T01:44:00;21.95;;;11.35;;
70558;SDS011;58108;48.094;11.838;2022-09-01T01:46:30;22.05;;;11.50;;
70558;SDS011;58108;48.094;11.838;2022-09-01T01:48:57;21.10;;;11.23;;
70558;SDS011;58108;48.094;11.838;2022-09-01T01:51:26;21.85;;;11.63;;
70558;SDS011;58108;48.094;11.838;2022-09-01T01:53:52;21.80;;;11.65;;
70558;SDS011;58108;48.094;11.838;2022-09-01T01:56:20;19.98;;;10.40;;
70558;SDS011;58108;48.094;11.838;2022-09-01T01:58:49;20.80;;;11.00;;
70558;SDS011;58108;48.094;11.838;2022-09-01T02:01:21;23.63;;;11.70;;
70558;SDS011;58108;48.094;11.838;2022-09-01T02:03:49;23.45;;;11.25;;
70558;SDS011;58108;48.094;11.838;2022-09-01T02:06:19;24.55;;;12.43;;
70558;SDS011;58108;48.094;11.838;2022-09-01T02:08:45;21.77;;;11.65;;
70558;SDS011;58108;48.094;11.838;2022-09-01T02:11:10;23.07;;;11.13;;
70558;SDS011;58108;48.094;11.838;2022-09-01T02:13:37;22.33;;;10.60;;
70558;SDS011;58108;48.094;11.838;2022-09-01T02:16:04;22.03;;;11.97;;
70558;SDS011;58108;48.094;11.838;2022-09-01T02:18:39;22.30;;;11.32;;
70558;SDS011;58108;48.094;11.838;2022-09-01T02:21:12;22.38;;;11.52;;
70558;SDS011;58108;48.094;11.838;2022-09-01T02:23:43;22.77;;;11.60;;
70558;SDS011;58108;48.094;11.838;2022-09-01T02:26:08;21.67;;;10.70;;
70558;SDS011;58108;48.094;11.838;2022-09-01T02:28:37;20.58;;;10.63;;
70558;SDS011;58108;48.094;11.838;2022-09-01T02:31:06;17.52;;;10.05;;
70558;SDS011;58108;48.094;11.838;2022-09-01T02:33:35;20.23;;;10.80;;
70558;SDS011;58108;48.094;11.838;2022-09-01T02:36:03;21.20;;;10.80;;
70558;SDS011;58108;48.094;11.838;2022-09-01T02:38:34;21.90;;;11.13;;
70558;SDS011;58108;48.094;11.838;2022-09-01T02:41:01;21.00;;;10.88;;
70558;SDS011;58108;48.094;11.838;2022-09-01T02:43:27;21.42;;;10.57;;
70558;SDS011;58108;48.094;11.838;2022-09-01T02:45:57;18.30;;;10.07;;
70558;SDS011;58108;48.094;11.838;2022-09-01T02:48:34;18.10;;;10.32;;
70558;SDS011;58108;48.094;11.838;2022-09-01T02:51:02;18.85;;;10.52;;
70558;SDS011;58108;48.094;11.838;2022-09-01T02:53:29;20.50;;;10.98;;
70558;SDS011;58108;48.094;11.838;2022-09-01T02:55:59;23.17;;;11.77;;
70558;SDS011;58108;48.094;11.838;2022-09-01T02:58:26;20.00;;;10.60;;
70558;SDS011;58108;48.094;11.838;2022-09-01T03:00:56;18.50;;;9.90;;
70558;SDS011;58108;48.094;11.838;2022-09-01T03:03:22;20.75;;;9.98;;
70558;SDS011;58108;48.094;11.838;2022-09-01T03:05:50;21.52;;;10.38;;
70558;SDS011;58108;48.094;11.838;2022-09-01T03:08:20;20.90;;;10.73;;
70558;SDS011;58108;48.094;11.838;2022-09-01T03:10:50;22.60;;;10.85;;
70558;SDS011;58108;48.094;11.838;2022-09-01T03:13:19;27.30;;;11.10;;
70558;SDS011;58108;48.094;11.838;2022-09-01T03:15:46;23.38;;;10.70;;
70558;SDS011;58108;48.094;11.838;2022-09-01T03:18:12;22.90;;;11.53;;
70558;SDS011;58108;48.094;11.838;2022-09-01T03:20:40;23.52;;;10.38;;
70558;SDS011;58108;48.094;11.838;2022-09-01T03:23:09;19.90;;;10.40;;
70558;SDS011;58108;48.094;11.838;2022-09-01T03:25:39;20.65;;;9.95;;
70558;SDS011;58108;48.094;11.838;2022-09-01T03:28:05;21.25;;;10.73;;
70558;SDS011;58108;48.094;11.838;2022-09-01T03:30:32;20.27;;;9.87;;
70558;SDS011;58108;48.094;11.838;2022-09-01T03:32:59;20.65;;;9.85;;
70558;SDS011;58108;48.094;11.838;2022-09-01T03:35:27;23.25;;;10.68;;
70558;SDS011;58108;48.094;11.838;2022-09-01T03:37:54;20.97;;;9.97;;
70558;SDS011;58108;48.094;11.838;2022-09-01T03:40:23;18.10;;;9.18;;
70558;SDS011;58108;48.094;11.838;2022-09-01T03:42:51;16.75;;;9.38;;
70558;SDS011;58108;48.094;11.838;2022-09-01T03:45:19;18.25;;;9.13;;
70558;SDS011;58108;48.094;11.838;2022-09-01T03:47:45;16.88;;;8.95;;
70558;SDS011;58108;48.094;11.838;2022-09-01T03:50:15;16.27;;;8.80;;
70558;SDS011;58108;48.094;11.838;2022-09-01T03:52:45;18.88;;;9.40;;
70558;SDS011;58108;48.094;11.838;2022-09-01T03:55:13;18.20;;;9.43;;
70558;SDS011;58108;48.094;11.838;2022-09-01T03:57:47;15.80;;;8.75;;
70558;SDS011;58108;48.094;11.838;2022-09-01T04:00:21;17.00;;;8.68;;
70558;SDS011;58108;48.094;11.838;2022-09-01T04:02:51;18.83;;;8.80;;
70558;SDS011;58108;48.094;11.838;2022-09-01T04:05:22;15.18;;;7.75;;
70558;SDS011;58108;48.094;11.838;2022-09-01T04:07:53;15.52;;;7.82;;
70558;SDS011;58108;48.094;11.838;2022-09-01T04:10:24;13.50;;;7.10;;
70558;SDS011;58108;48.094;11.838;2022-09-01T04:12:49;12.25;;;6.28;;
70558;SDS011;58108;48.094;11.838;2022-09-01T04:15:15;13.33;;;5.93;;
70558;SDS011;58108;48.094;11.838;2022-09-01T04:17:45;13.60;;;7.07;;
70558;SDS011;58108;48.094;11.838;2022-09-01T04:20:34;15.25;;;6.75;;
70558;SDS011;58108;48.094;11.838;2022-09-01T04:23:25;13.33;;;7.10;;
70558;SDS011;58108;48.094;11.838;2022-09-01T04:28:24;13.88;;;7.00;;
70558;SDS011;58108;48.094;11.838;2022-09-01T04:30:55;13.23;;;7.10;;
70558;SDS011;58108;48.094;11.838;2022-09-01T04:33:25;15.15;;;8.35;;
70558;SDS011;58108;48.094;11.838;2022-09-01T04:35:58;13.50;;;6.60;;
70558;SDS011;58108;48.094;11.838;2022-09-01T04:38:24;13.00;;;7.00;;
70558;SDS011;58108;48.094;11.838;2022-09-01T04:40:50;12.67;;;6.33;;
70558;SDS011;58108;48.094;11.838;2022-09-01T04:43:16;14.85;;;7.45;;
70558;SDS011;58108;48.094;11.838;2022-09-01T04:45:42;14.60;;;6.40;;
70558;SDS011;58108;48.094;11.838;2022-09-01T04:48:09;13.25;;;7.22;;
70558;SDS011;58108;48.094;11.838;2022-09-01T04:50:34;16.00;;;7.50;;
70558;SDS011;58108;48.094;11.838;2022-09-01T04:53:01;13.55;;;7.03;;
70558;SDS011;58108;48.094;11.838;2022-09-01T04:55:29;14.20;;;7.22;;
70558;SDS011;58108;48.094;11.838;2022-09-01T04:57:56;15.13;;;7.47;;
70558;SDS011;58108;48.094;11.838;2022-09-01T05:00:23;13.70;;;7.43;;
70558;SDS011;58108;48.094;11.838;2022-09-01T05:02:54;15.20;;;7.68;;
70558;SDS011;58108;48.094;11.838;2022-09-01T05:05:27;12.98;;;7.03;;
70558;SDS011;58108;48.094;11.838;2022-09-01T05:07:52;13.50;;;6.72;;
70558;SDS011;58108;48.094;11.838;2022-09-01T05:10:19;16.07;;;7.90;;
70558;SDS011;58108;48.094;11.838;2022-09-01T05:12:46;19.23;;;9.77;;
70558;SDS011;58108;48.094;11.838;2022-09-01T05:15:13;23.92;;;11.30;;
70558;SDS011;58108;48.094;11.838;2022-09-01T05:17:39;26.02;;;12.00;;
70558;SDS011;58108;48.094;11.838;2022-09-01T05:20:05;27.07;;;12.53;;
70558;SDS011;58108;48.094;11.838;2022-09-01T05:22:32;28.17;;;12.30;;
70558;SDS011;58108;48.094;11.838;2022-09-01T05:24:58;28.05;;;13.18;;
70558;SDS011;58108;48.094;11.838;2022-09-01T05:27:36;30.30;;;13.15;;
70558;SDS011;58108;48.094;11.838;2022-09-01T05:30:03;27.83;;;12.40;;
70558;SDS011;58108;48.094;11.838;2022-09-01T05:32:32;26.97;;;11.73;;
70558;SDS011;58108;48.094;11.838;2022-09-01T05:35:02;27.50;;;12.63;;
70558;SDS011;58108;48.094;11.838;2022-09-01T05:37:32;29.88;;;13.63;;
70558;SDS011;58108;48.094;11.838;2022-09-01T05:40:07;28.77;;;12.88;;
70558;SDS011;58108;48.094;11.838;2022-09-01T05:42:33;28.98;;;12.48;;
70558;SDS011;58108;48.094;11.838;2022-09-01T05:45:04;26.70;;;11.77;;
70558;SDS011;58108;48.094;11.838;2022-09-01T05:47:30;25.83;;;12.27;;
70558;SDS011;58108;48.094;11.838;2022-09-01T05:50:01;27.20;;;12.30;;
70558;SDS011;58108;48.094;11.838;2022-09-01T05:52:28;24.10;;;11.68;;
70558;SDS011;58108;48.094;11.838;2022-09-01T05:54:58;26.60;;;12.43;;
70558;SDS011;58108;48.094;11.838;2022-09-01T05:57:24;25.63;;;12.23;;
70558;SDS011;58108;48.094;11.838;2022-09-01T05:59:50;26.80;;;12.65;;
70558;SDS011;58108;48.094;11.838;2022-09-01T06:02:18;25.98;;;12.27;;
70558;SDS011;58108;48.094;11.838;2022-09-01T06:04:47;25.00;;;12.38;;
70558;SDS011;58108;48.094;11.838;2022-09-01T06:07:13;23.30;;;11.17;;
70558;SDS011;58108;48.094;11.838;2022-09-01T06:09:41;22.88;;;12.13;;
70558;SDS011;58108;48.094;11.838;2022-09-01T06:12:09;22.65;;;11.48;;
70558;SDS011;58108;48.094;11.838;2022-09-01T06:14:41;22.50;;;11.10;;
70558;SDS011;58108;48.094;11.838;2022-09-01T06:17:07;23.17;;;12.20;;
70558;SDS011;58108;48.094;11.838;2022-09-01T06:19:34;22.83;;;12.02;;
70558;SDS011;58108;48.094;11.838;2022-09-01T06:21:59;21.07;;;11.53;;
70558;SDS011;58108;48.094;11.838;2022-09-01T06:24:25;21.90;;;12.35;;
70558;SDS011;58108;48.094;11.838;2022-09-01T06:26:52;23.53;;;11.83;;
70558;SDS011;58108;48.094;11.838;2022-09-01T06:29:18;19.95;;;11.27;;
70558;SDS011;58108;48.094;11.838;2022-09-01T06:31:45;18.50;;;10.52;;
70558;SDS011;58108;48.094;11.838;2022-09-01T06:34:15;18.92;;;10.43;;
70558;SDS011;58108;48.094;11.838;2022-09-01T06:36:42;20.55;;;11.27;;
70558;SDS011;58108;48.094;11.838;2022-09-01T06:39:09;18.77;;;10.50;;
70558;SDS011;58108;48.094;11.838;2022-09-01T06:41:43;18.95;;;10.68;;
70558;SDS011;58108;48.094;11.838;2022-09-01T06:44:12;17.42;;;10.15;;
70558;SDS011;58108;48.094;11.838;2022-09-01T06:46:38;17.87;;;10.33;;
70558;SDS011;58108;48.094;11.838;2022-09-01T06:49:04;18.25;;;10.40;;
70558;SDS011;58108;48.094;11.838;2022-09-01T06:51:29;15.80;;;9.43;;
70558;SDS011;58108;48.094;11.838;2022-09-01T06:53:56;17.00;;;9.95;;
70558;SDS011;58108;48.094;11.838;2022-09-01T06:56:23;16.10;;;9.75;;
70558;SDS011;58108;48.094;11.838;2022-09-01T06:58:55;14.73;;;9.00;;
70558;SDS011;58108;48.094;11.838;2022-09-01T07:01:21;16.50;;;9.27;;
70558;SDS011;58108;48.094;11.838;2022-09-01T07:03:49;14.43;;;8.63;;
70558;SDS011;58108;48.094;11.838;2022-09-01T07:06:16;15.48;;;8.90;;
70558;SDS011;58108;48.094;11.838;2022-09-01T07:08:43;12.55;;;8.13;;
70558;SDS011;58108;48.094;11.838;2022-09-01T07:11:17;14.20;;;8.30;;
70558;SDS011;58108;48.094;11.838;2022-09-01T07:13:53;13.47;;;8.30;;
70558;SDS011;58108;48.094;11.838;2022-09-01T07:16:21;12.95;;;8.23;;
70558;SDS011;58108;48.094;11.838;2022-09-01T07:18:50;12.55;;;8.07;;
70558;SDS011;58108;48.094;11.838;2022-09-01T07:21:19;14.80;;;8.32;;
70558;SDS011;58108;48.094;11.838;2022-09-01T07:23:46;13.13;;;8.50;;
70558;SDS011;58108;48.094;11.838;2022-09-01T07:26:11;12.03;;;7.70;;
70558;SDS011;58108;48.094;11.838;2022-09-01T07:28:42;12.55;;;7.75;;
70558;SDS011;58108;48.094;11.838;2022-09-01T07:31:15;13.25;;;8.23;;
70558;SDS011;58108;48.094;11.838;2022-09-01T07:33:53;13.07;;;8.30;;
70558;SDS011;58108;48.094;11.838;2022-09-01T07:36:22;12.73;;;8.18;;
70558;SDS011;58108;48.094;11.838;2022-09-01T07:38:48;12.43;;;7.93;;
70558;SDS011;58108;48.094;11.838;2022-09-01T07:41:18;13.30;;;8.50;;
70558;SDS011;58108;48.094;11.838;2022-09-01T07:43:48;13.23;;;8.45;;
70558;SDS011;58108;48.094;11.838;2022-09-01T07:46:16;13.03;;;8.43;;
70558;SDS011;58108;48.094;11.838;2022-09-01T07:48:43;12.30;;;8.63;;
70558;SDS011;58108;48.094;11.838;2022-09-01T07:51:10;13.73;;;8.45;;
70558;SDS011;58108;48.094;11.838;2022-09-01T07:53:37;14.35;;;8.88;;
70558;SDS011;58108;48.094;11.838;2022-09-01T07:56:06;13.30;;;8.63;;
70558;SDS011;58108;48.094;11.838;2022-09-01T07:58:34;13.13;;;8.45;;
70558;SDS011;58108;48.094;11.838;2022-09-01T08:01:00;12.95;;;8.43;;
70558;SDS011;58108;48.094;11.838;2022-09-01T08:03:29;15.30;;;9.77;;
70558;SDS011;58108;48.094;11.838;2022-09-01T08:05:55;12.88;;;8.50;;
70558;SDS011;58108;48.094;11.838;2022-09-01T08:08:27;12.27;;;7.85;;
70558;SDS011;58108;48.094;11.838;2022-09-01T08:10:53;11.87;;;7.90;;
70558;SDS011;58108;48.094;11.838;2022-09-01T08:13:18;11.60;;;7.30;;
70558;SDS011;58108;48.094;11.838;2022-09-01T08:15:45;11.45;;;7.30;;
70558;SDS011;58108;48.094;11.838;2022-09-01T08:18:10;10.03;;;6.77;;
70558;SDS011;58108;48.094;11.838;2022-09-01T08:20:37;10.77;;;7.13;;
70558;SDS011;58108;48.094;11.838;2022-09-01T08:23:06;10.82;;;7.82;;
70558;SDS011;58108;48.094;11.838;2022-09-01T08:25:32;12.00;;;7.50;;
70558;SDS011;58108;48.094;11.838;2022-09-01T08:28:00;9.93;;;7.15;;
70558;SDS011;58108;48.094;11.838;2022-09-01T08:30:26;10.07;;;6.97;;
70558;SDS011;58108;48.094;11.838;2022-09-01T08:32:52;9.73;;;6.38;;
70558;SDS011;58108;48.094;11.838;2022-09-01T08:35:17;11.10;;;6.83;;
70558;SDS011;58108;48.094;11.838;2022-09-01T08:37:43;9.50;;;6.63;;
70558;SDS011;58108;48.094;11.838;2022-09-01T08:40:11;9.57;;;7.10;;
70558;SDS011;58108;48.094;11.838;2022-09-01T08:42:49;9.95;;;7.10;;
70558;SDS011;58108;48.094;11.838;2022-09-01T08:45:26;9.85;;;6.70;;
70558;SDS011;58108;48.094;11.838;2022-09-01T08:47:56;8.68;;;6.25;;
70558;SDS011;58108;48.094;11.838;2022-09-01T08:50:26;9.05;;;6.72;;
70558;SDS011;58108;48.094;11.838;2022-09-01T08:53:04;10.30;;;7.53;;
70558;SDS011;58108;48.094;11.838;2022-09-01T08:55:41;10.27;;;7.18;;
70558;SDS011;58108;48.094;11.838;2022-09-01T08:58:10;9.88;;;6.90;;
70558;SDS011;58108;48.094;11.838;2022-09-01T09:00:43;10.07;;;6.55;;
70558;SDS011;58108;48.094;11.838;2022-09-01T09:17:00;9.02;;;6.97;;
70558;SDS011;58108;48.094;11.838;2022-09-01T09:19:29;10.00;;;7.43;;
70558;SDS011;58108;48.094;11.838;2022-09-01T09:21:59;9.37;;;6.50;;
70558;SDS011;58108;48.094;11.838;2022-09-01T09:27:22;9.85;;;7.38;;
70558;SDS011;58108;48.094;11.838;2022-09-01T09:29:48;8.48;;;6.30;;
70558;SDS011;58108;48.094;11.838;2022-09-01T09:32:16;7.40;;;5.80;;
70558;SDS011;58108;48.094;11.838;2022-09-01T09:34:43;9.47;;;6.90;;
70558;SDS011;58108;48.094;11.838;2022-09-01T09:37:30;9.35;;;7.65;;
70558;SDS011;58108;48.094;11.838;2022-09-01T09:40:12;9.27;;;7.57;;
70558;SDS011;58108;48.094;11.838;2022-09-01T09:42:42;8.90;;;6.10;;
70558;SDS011;58108;48.094;11.838;2022-09-01T09:45:38;7.75;;;5.80;;
70558;SDS011;58108;48.094;11.838;2022-09-01T09:48:46;7.70;;;5.80;;
70558;SDS011;58108;48.094;11.838;2022-09-01T09:50:55;7.38;;;5.70;;
70558;SDS011;58108;48.094;11.838;2022-09-01T09:53:40;6.50;;;5.20;;
70558;SDS011;58108;48.094;11.838;2022-09-01T09:56:15;10.18;;;5.53;;
70558;SDS011;58108;48.094;11.838;2022-09-01T09:58:45;6.73;;;5.20;;
70558;SDS011;58108;48.094;11.838;2022-09-01T10:01:33;6.53;;;4.82;;
70558;SDS011;58108;48.094;11.838;2022-09-01T10:03:59;6.00;;;4.30;;
70558;SDS011;58108;48.094;11.838;2022-09-01T10:06:32;5.57;;;4.28;;
70558;SDS011;58108;48.094;11.838;2022-09-01T10:09:44;5.80;;;3.83;;
70558;SDS011;58108;48.094;11.838;2022-09-01T10:11:48;5.10;;;3.60;;
70558;SDS011;58108;48.094;11.838;2022-09-01T10:14:26;4.85;;;3.58;;
70558;SDS011;58108;48.094;11.838;2022-09-01T10:17:03;4.95;;;3.78;;
70558;SDS011;58108;48.094;11.838;2022-09-01T10:19:33;5.00;;;3.30;;
70558;SDS011;58108;48.094;11.838;2022-09-01T10:22:04;5.30;;;4.10;;
70558;SDS011;58108;48.094;11.838;2022-09-01T10:24:33;5.40;;;3.60;;
70558;SDS011;58108;48.094;11.838;2022-09-01T10:27:10;5.28;;;4.05;;
70558;SDS011;58108;48.094;11.838;2022-09-01T10:29:46;6.17;;;4.10;;
70558;SDS011;58108;48.094;11.838;2022-09-01T10:32:20;6.40;;;4.60;;
70558;SDS011;58108;48.094;11.838;2022-09-01T10:34:50;6.88;;;4.20;;
70558;SDS011;58108;48.094;11.838;2022-09-01T10:37:16;5.00;;;3.67;;
70558;SDS011;58108;48.094;11.838;2022-09-01T10:42:34;5.68;;;4.30;;
70558;SDS011;58108;48.094;11.838;2022-09-01T10:44:59;5.93;;;4.07;;
70558;SDS011;58108;48.094;11.838;2022-09-01T10:47:29;5.95;;;3.42;;
70558;SDS011;58108;48.094;11.838;2022-09-01T10:50:05;5.15;;;3.50;;
70558;SDS011;58108;48.094;11.838;2022-09-01T10:53:04;5.35;;;3.45;;
70558;SDS011;58108;48.094;11.838;2022-09-01T10:55:34;4.73;;;3.40;;
70558;SDS011;58108;48.094;11.838;2022-09-01T10:58:07;5.63;;;3.33;;
70558;SDS011;58108;48.094;11.838;2022-09-01T11:00:43;4.70;;;3.50;;
70558;SDS011;58108;48.094;11.838;2022-09-01T11:08:23;3.83;;;2.95;;
70558;SDS011;58108;48.094;11.838;2022-09-01T11:11:25;4.28;;;3.10;;
70558;SDS011;58108;48.094;11.838;2022-09-01T11:14:15;4.47;;;2.57;;
70558;SDS011;58108;48.094;11.838;2022-09-01T11:16:42;4.35;;;2.80;;
70558;SDS011;58108;48.094;11.838;2022-09-01T11:22:32;4.25;;;2.67;;
70558;SDS011;58108;48.094;11.838;2022-09-01T11:25:05;4.95;;;2.53;;
70558;SDS011;58108;48.094;11.838;2022-09-01T11:30:21;3.00;;;2.25;;
70558;SDS011;58108;48.094;11.838;2022-09-01T11:32:57;3.55;;;2.22;;
70558;SDS011;58108;48.094;11.838;2022-09-01T11:35:32;3.17;;;2.35;;
70558;SDS011;58108;48.094;11.838;2022-09-01T11:38:01;3.50;;;2.30;;
70558;SDS011;58108;48.094;11.838;2022-09-01T11:40:31;2.92;;;2.20;;
70558;SDS011;58108;48.094;11.838;2022-09-01T11:42:59;3.42;;;2.67;;
70558;SDS011;58108;48.094;11.838;2022-09-01T11:45:35;3.42;;;2.50;;
70558;SDS011;58108;48.094;11.838;2022-09-01T11:48:09;2.70;;;2.03;;
70558;SDS011;58108;48.094;11.838;2022-09-01T11:50:38;3.83;;;2.22;;
70558;SDS011;58108;48.094;11.838;2022-09-01T11:53:11;3.97;;;1.98;;
70558;SDS011;58108;48.094;11.838;2022-09-01T11:55:39;2.90;;;2.05;;
70558;SDS011;58108;48.094;11.838;2022-09-01T11:58:11;3.38;;;2.45;;
70558;SDS011;58108;48.094;11.838;2022-09-01T12:00:52;2.90;;;2.40;;
70558;SDS011;58108;48.094;11.838;2022-09-01T12:03:20;3.00;;;2.58;;
70558;SDS011;58108;48.094;11.838;2022-09-01T12:05:53;3.92;;;2.50;;
70558;SDS011;58108;48.094;11.838;2022-09-01T12:08:23;3.80;;;2.33;;
70558;SDS011;58108;48.094;11.838;2022-09-01T12:11:01;4.60;;;2.70;;
70558;SDS011;58108;48.094;11.838;2022-09-01T12:13:28;3.77;;;3.00;;
70558;SDS011;58108;48.094;11.838;2022-09-01T12:15:55;4.70;;;3.70;;
70558;SDS011;58108;48.094;11.838;2022-09-01T12:18:24;4.53;;;3.30;;
70558;SDS011;58108;48.094;11.838;2022-09-01T12:20:53;3.90;;;2.78;;
70558;SDS011;58108;48.094;11.838;2022-09-01T12:23:29;5.20;;;2.78;;
70558;SDS011;58108;48.094;11.838;2022-09-01T12:25:58;3.13;;;2.50;;
70558;SDS011;58108;48.094;11.838;2022-09-01T12:28:27;4.60;;;2.70;;
70558;SDS011;58108;48.094;11.838;2022-09-01T12:31:01;3.13;;;2.53;;
70558;SDS011;58108;48.094;11.838;2022-09-01T12:33:29;3.10;;;2.35;;
70558;SDS011;58108;48.094;11.838;2022-09-01T12:38:45;3.85;;;2.00;;
70558;SDS011;58108;48.094;11.838;2022-09-01T12:43:50;3.28;;;2.10;;
70558;SDS011;58108;48.094;11.838;2022-09-01T12:46:38;3.40;;;2.20;;
70558;SDS011;58108;48.094;11.838;2022-09-01T12:49:18;3.10;;;2.20;;
70558;SDS011;58108;48.094;11.838;2022-09-01T12:51:48;2.78;;;1.88;;
70558;SDS011;58108;48.094;11.838;2022-09-01T12:54:13;3.13;;;2.20;;
70558;SDS011;58108;48.094;11.838;2022-09-01T12:56:39;3.85;;;2.10;;
70558;SDS011;58108;48.094;11.838;2022-09-01T12:59:19;3.00;;;2.03;;
70558;SDS011;58108;48.094;11.838;2022-09-01T13:01:46;2.97;;;2.20;;
70558;SDS011;58108;48.094;11.838;2022-09-01T13:06:56;7.38;;;2.20;;
70558;SDS011;58108;48.094;11.838;2022-09-01T13:09:25;2.87;;;2.10;;
70558;SDS011;58108;48.094;11.838;2022-09-01T13:11:51;2.70;;;1.88;;
70558;SDS011;58108;48.094;11.838;2022-09-01T13:14:16;3.50;;;2.03;;
70558;SDS011;58108;48.094;11.838;2022-09-01T13:16:42;3.40;;;1.80;;
70558;SDS011;58108;48.094;11.838;2022-09-01T13:19:08;2.97;;;2.03;;
70558;SDS011;58108;48.094;11.838;2022-09-01T13:21:34;3.17;;;2.13;;
70558;SDS011;58108;48.094;11.838;2022-09-01T13:24:00;3.78;;;2.20;;
70558;SDS011;58108;48.094;11.838;2022-09-01T13:26:30;2.38;;;2.10;;
70558;SDS011;58108;48.094;11.838;2022-09-01T13:28:56;3.87;;;2.70;;
70558;SDS011;58108;48.094;11.838;2022-09-01T13:31:22;3.75;;;3.30;;
70558;SDS011;58108;48.094;11.838;2022-09-01T13:33:48;2.80;;;2.23;;
70558;SDS011;58108;48.094;11.838;2022-09-01T13:36:13;3.47;;;2.20;;
70558;SDS011;58108;48.094;11.838;2022-09-01T13:38:38;2.73;;;2.20;;
70558;SDS011;58108;48.094;11.838;2022-09-01T13:41:04;4.73;;;2.43;;
70558;SDS011;58108;48.094;11.838;2022-09-01T13:43:30;3.33;;;2.22;;
70558;SDS011;58108;48.094;11.838;2022-09-01T13:45:58;3.53;;;2.70;;
70558;SDS011;58108;48.094;11.838;2022-09-01T13:48:23;3.40;;;2.07;;
70558;SDS011;58108;48.094;11.838;2022-09-01T13:50:49;2.87;;;2.00;;
70558;SDS011;58108;48.094;11.838;2022-09-01T13:53:19;3.13;;;2.22;;
70558;SDS011;58108;48.094;11.838;2022-09-01T13:55:45;3.78;;;2.20;;
70558;SDS011;58108;48.094;11.838;2022-09-01T13:58:11;3.13;;;2.20;;
70558;SDS011;58108;48.094;11.838;2022-09-01T14:00:38;3.67;;;1.75;;
70558;SDS011;58108;48.094;11.838;2022-09-01T14:03:09;3.07;;;1.90;;
70558;SDS011;58108;48.094;11.838;2022-09-01T14:05:39;2.65;;;2.08;;
70558;SDS011;58108;48.094;11.838;2022-09-01T14:08:07;3.45;;;2.20;;
70558;SDS011;58108;48.094;11.838;2022-09-01T14:10:36;3.80;;;2.88;;
70558;SDS011;58108;48.094;11.838;2022-09-01T14:13:03;4.47;;;2.85;;
70558;SDS011;58108;48.094;11.838;2022-09-01T14:15:29;4.27;;;2.50;;
70558;SDS011;58108;48.094;11.838;2022-09-01T14:17:55;2.80;;;2.20;;
70558;SDS011;58108;48.094;11.838;2022-09-01T14:20:22;2.13;;;1.75;;
70558;SDS011;58108;48.094;11.838;2022-09-01T14:22:49;3.40;;;1.98;;
70558;SDS011;58108;48.094;11.838;2022-09-01T14:25:15;3.03;;;1.90;;
70558;SDS011;58108;48.094;11.838;2022-09-01T14:27:42;3.80;;;2.20;;
70558;SDS011;58108;48.094;11.838;2022-09-01T14:30:09;2.40;;;2.20;;
70558;SDS011;58108;48.094;11.838;2022-09-01T14:32:37;3.13;;;2.08;;
70558;SDS011;58108;48.094;11.838;2022-09-01T14:35:03;3.20;;;2.10;;
70558;SDS011;58108;48.094;11.838;2022-09-01T14:37:32;2.65;;;2.00;;
70558;SDS011;58108;48.094;11.838;2022-09-01T14:39:57;3.63;;;2.20;;
70558;SDS011;58108;48.094;11.838;2022-09-01T14:42:23;2.40;;;1.92;;
70558;SDS011;58108;48.094;11.838;2022-09-01T14:44:53;2.93;;;1.70;;
70558;SDS011;58108;48.094;11.838;2022-09-01T14:47:19;2.65;;;1.80;;
70558;SDS011;58108;48.094;11.838;2022-09-01T14:49:46;2.70;;;1.95;;
70558;SDS011;58108;48.094;11.838;2022-09-01T14:52:11;2.47;;;1.80;;
70558;SDS011;58108;48.094;11.838;2022-09-01T14:54:37;3.60;;;1.77;;
70558;SDS011;58108;48.094;11.838;2022-09-01T14:57:06;3.13;;;2.00;;
70558;SDS011;58108;48.094;11.838;2022-09-01T14:59:32;3.03;;;1.73;;
70558;SDS011;58108;48.094;11.838;2022-09-01T15:01:57;2.63;;;1.80;;
70558;SDS011;58108;48.094;11.838;2022-09-01T15:04:23;1.97;;;1.60;;
70558;SDS011;58108;48.094;11.838;2022-09-01T15:06:48;2.97;;;1.80;;
70558;SDS011;58108;48.094;11.838;2022-09-01T15:09:14;2.95;;;1.45;;
70558;SDS011;58108;48.094;11.838;2022-09-01T15:11:40;2.80;;;1.90;;
70558;SDS011;58108;48.094;11.838;2022-09-01T15:14:06;2.38;;;1.98;;
70558;SDS011;58108;48.094;11.838;2022-09-01T15:16:33;2.67;;;1.60;;
70558;SDS011;58108;48.094;11.838;2022-09-01T15:19:04;2.28;;;1.88;;
70558;SDS011;58108;48.094;11.838;2022-09-01T15:21:30;2.92;;;1.55;;